Time;durP1;ratioP1;P1;durP2;ratioP2;P2;SDS_P1;SDS_P2;PMS_P1;PMS_P2;Temp;Humidity;BMP_temperature;BMP_pressure;BME280_temperature;BME280_humidity;BME280_pressure;Samples;Min_cycle;Max_cycle;Signal;HPM_P1;HPM_P2
2024/02/29 00:02:08;;;;;;;;;;;;;;;-144.99;nan;52633.59;5065026;28;20016;-71
2024/02/29 00:04:35;;;;;;;;;;;;;;;-144.99;nan;52578.53;5059568;28;20348;-72
2024/02/29 00:07:03;;;;;;;;;;;;;;;-144.99;nan;52627.47;5060119;28;20037;-70
2024/02/29 00:09:30;;;;;;;;;;;;;;;-144.99;nan;52598.94;5052581;28;19925;-71
2024/02/29 00:11:56;;;;;;;;;;;;;;;-144.99;nan;52611.16;5058682;28;20015;-73
2024/02/29 00:14:22;;;;;;;;;;;;;;;-144.99;nan;52584.66;5055718;28;20465;-72
2024/02/29 00:16:50;;;;;;;;;;;;;;;-144.99;nan;52603.00;5057390;28;19931;-72
2024/02/29 00:19:17;;;;;;;;;;;;;;;-144.99;nan;52623.38;5063961;28;20015;-74
2024/02/29 00:21:43;;;;;;;;;;;;;;;-144.99;nan;52594.84;5059971;28;20042;-71
2024/02/29 00:24:11;;;;;;;;;;;;;;;-144.99;nan;52590.78;5054731;28;19992;-72
2024/02/29 00:26:38;;;;;;;;;;;;;;;-144.99;nan;52572.44;5059410;28;19932;-71
2024/02/29 00:29:04;;;;;;;;;;;;;;;-144.99;nan;52574.47;5060618;28;20527;-73
2024/02/29 00:31:30;;;;;;;;;;;;;;;-144.99;nan;52578.53;5066522;28;20469;-74
2024/02/29 00:33:57;;;;;;;;;;;;;;;-144.99;nan;52588.75;5053424;28;19981;-76
2024/02/29 00:36:23;;;;;;;;;;;;;;;-144.99;nan;52615.25;5051219;28;19929;-73
2024/02/29 00:38:50;;;;;;;;;;;;;;;-144.99;nan;52545.94;5057153;28;20056;-72
2024/02/29 00:41:18;;;;;;;;;;;;;;;-144.99;nan;52615.25;5056934;28;19935;-71
2024/02/29 00:43:44;;;;;;;;;;;;;;;-144.99;nan;52590.78;5057979;28;19973;-73
2024/02/29 00:46:11;;;;;;;;;;;;;;;-144.99;nan;52576.50;5058095;28;20019;-72
2024/02/29 00:48:37;;;;;;;;;;;;;;;-144.99;nan;52603.00;5052553;28;20020;-70
2024/02/29 00:51:04;;;;;;;;;;;;;;;-144.99;nan;52564.28;5064773;28;20370;-71
2024/02/29 00:53:30;;;;;;;;;;;;;;;-144.99;nan;52586.69;5057321;28;19925;-70
2024/02/29 00:55:57;;;;;;;;;;;;;;;-144.99;nan;52596.88;5057979;28;20060;-69
2024/02/29 00:58:25;;;;;;;;;;;;;;;-144.99;nan;52586.69;5062718;28;19981;-71
2024/02/29 01:00:51;;;;;;;;;;;;;;;-144.99;nan;52590.78;5058938;28;19928;-71
2024/02/29 01:03:17;;;;;;;;;;;;;;;-144.99;nan;52558.16;5060564;28;20432;-71
2024/02/29 01:05:44;;;;;;;;;;;;;;;-144.99;nan;52594.84;5060133;28;20015;-71
2024/02/29 01:08:10;;;;;;;;;;;;;;;-144.99;nan;52572.44;5054021;28;19964;-71
2024/02/29 01:10:37;;;;;;;;;;;;;;;-144.99;nan;52643.78;5053918;28;20019;-70
2024/02/29 01:13:03;;;;;;;;;;;;;;;-144.99;nan;52590.78;5056892;28;20047;-72
2024/02/29 01:15:31;;;;;;;;;;;;;;;-144.99;nan;52590.78;5053928;28;20171;-71
2024/02/29 01:17:58;;;;;;;;;;;;;;;-144.99;nan;52603.00;5059600;28;19982;-69
2024/02/29 01:20:24;;;;;;;;;;;;;;;-144.99;nan;52590.78;5055939;28;19960;-72
2024/02/29 01:22:51;;;;;;;;;;;;;;;-144.99;nan;52598.94;5052801;28;20027;-71
2024/02/29 01:25:17;;;;;;;;;;;;;;;-144.99;nan;52554.09;5081394;28;19916;-70
2024/02/29 01:27:43;;;;;;;;;;;;;;;-144.99;nan;52566.31;5067050;28;19968;-71
2024/02/29 01:30:10;;;;;;;;;;;;;;;-144.99;nan;52594.84;5058851;28;19955;-71
2024/02/29 01:32:38;;;;;;;;;;;;;;;-144.99;nan;52594.84;5053241;28;19968;-72
2024/02/29 01:35:05;;;;;;;;;;;;;;;-144.99;nan;52576.50;5054948;28;20011;-71
2024/02/29 01:37:31;;;;;;;;;;;;;;;-144.99;nan;52598.94;5053321;28;19964;-71
2024/02/29 01:39:58;;;;;;;;;;;;;;;-144.99;nan;52566.31;5056872;28;19990;-71
2024/02/29 01:42:24;;;;;;;;;;;;;;;-144.99;nan;52596.88;5051845;28;19979;-71
2024/02/29 01:44:53;;;;;;;;;;;;;;;-144.99;nan;52594.84;5051415;28;20019;-71
2024/02/29 01:47:20;;;;;;;;;;;;;;;-144.99;nan;52607.09;5055511;28;20303;-70
2024/02/29 01:49:49;;;;;;;;;;;;;;;-144.99;nan;52582.63;5053537;28;19925;-71
2024/02/29 01:52:16;;;;;;;;;;;;;;;-144.99;nan;52623.38;5059680;28;19967;-71
2024/02/29 01:54:42;;;;;;;;;;;;;;;-144.99;nan;52592.81;5053479;28;19925;-71
2024/02/29 01:57:08;;;;;;;;;;;;;;;-144.99;nan;52582.63;5053691;28;19928;-70
2024/02/29 01:59:36;;;;;;;;;;;;;;;-144.99;nan;52586.69;5063591;28;19978;-71
2024/02/29 02:02:02;;;;;;;;;;;;;;;-144.99;nan;52590.78;5056854;28;19971;-73
2024/02/29 02:04:29;;;;;;;;;;;;;;;-144.99;nan;52586.69;5048706;28;20585;-70
2024/02/29 02:06:58;;;;;;;;;;;;;;;-144.99;nan;52590.78;5053704;28;19998;-70
2024/02/29 02:09:24;;;;;;;;;;;;;;;-144.99;nan;52586.69;5052218;28;19929;-70
2024/02/29 02:11:51;;;;;;;;;;;;;;;-144.99;nan;52600.97;5056312;28;20367;-70
2024/02/29 02:14:17;;;;;;;;;;;;;;;-144.99;nan;52631.53;5064673;28;20074;-70
2024/02/29 02:16:44;;;;;;;;;;;;;;;-144.99;nan;52613.19;5073571;28;19986;-70
2024/02/29 02:19:11;;;;;;;;;;;;;;;-144.99;nan;52603.00;5059381;28;20125;-69
2024/02/29 02:21:39;;;;;;;;;;;;;;;-144.99;nan;52621.34;5058753;28;20019;-71
2024/02/29 02:24:06;;;;;;;;;;;;;;;-144.99;nan;52529.63;5052496;28;19940;-70
2024/02/29 02:26:33;;;;;;;;;;;;;;;-144.99;nan;52594.84;5055676;28;19971;-70
2024/02/29 02:29:00;;;;;;;;;;;;;;;-144.99;nan;52605.03;5058855;28;19931;-69
2024/02/29 02:31:26;;;;;;;;;;;;;;;-144.99;nan;52598.94;5061211;28;20023;-72
2024/02/29 02:33:52;;;;;;;;;;;;;;;-144.99;nan;52590.78;5064946;28;20447;-72
2024/02/29 02:36:19;;;;;;;;;;;;;;;-144.99;nan;52574.47;5056178;28;20015;-72
2024/02/29 02:38:47;;;;;;;;;;;;;;;-144.99;nan;52550.00;5057297;28;20398;-73
2024/02/29 02:41:13;;;;;;;;;;;;;;;-144.99;nan;52611.16;5058053;28;20582;-71
2024/02/29 02:43:40;;;;;;;;;;;;;;;-144.99;nan;52586.69;5060565;28;19929;-71
2024/02/29 02:46:06;;;;;;;;;;;;;;;-144.99;nan;52598.94;5062383;28;20011;-70
2024/02/29 02:48:32;;;;;;;;;;;;;;;-144.99;nan;52619.31;5055154;28;19964;-71
2024/02/29 02:50:59;;;;;;;;;;;;;;;-144.99;nan;52619.31;5060982;28;20017;-70
2024/02/29 02:53:25;;;;;;;;;;;;;;;-144.99;nan;52590.78;5057048;28;19929;-70
2024/02/29 02:55:53;;;;;;;;;;;;;;;-144.99;nan;52615.25;5058997;28;19929;-71
2024/02/29 02:58:20;;;;;;;;;;;;;;;-144.99;nan;52627.47;5064937;28;19929;-72
2024/02/29 03:00:46;;;;;;;;;;;;;;;-144.99;nan;52588.75;5060048;28;20023;-72
2024/02/29 03:03:13;;;;;;;;;;;;;;;-144.99;nan;52607.09;5062143;28;19925;-72
2024/02/29 03:05:39;;;;;;;;;;;;;;;-144.99;nan;52600.97;5082078;28;19928;-69
2024/02/29 03:08:11;;;;;;;;;;;;;;;-144.99;nan;52574.47;5068242;28;20353;-71
2024/02/29 03:10:38;;;;;;;;;;;;;;;-144.99;nan;52629.50;5056763;28;19977;-72
2024/02/29 03:13:06;;;;;;;;;;;;;;;-144.99;nan;52635.63;5059570;28;19929;-71
2024/02/29 03:15:32;;;;;;;;;;;;;;;-144.99;nan;52607.09;5056512;28;19964;-71
2024/02/29 03:17:58;;;;;;;;;;;;;;;-144.99;nan;52594.84;5053743;28;19998;-71
2024/02/29 03:20:25;;;;;;;;;;;;;;;-144.99;nan;52607.09;5061014;28;19928;-73
2024/02/29 03:22:51;;;;;;;;;;;;;;;-144.99;nan;52574.47;5061159;28;20042;-72
2024/02/29 03:25:18;;;;;;;;;;;;;;;-144.99;nan;52586.69;5061436;28;20015;-72
2024/02/29 03:27:46;;;;;;;;;;;;;;;-144.99;nan;52611.16;5059946;28;19939;-71
2024/02/29 03:30:15;;;;;;;;;;;;;;;-144.99;nan;52578.53;5065494;28;20015;-72
2024/02/29 03:32:41;;;;;;;;;;;;;;;-144.99;nan;52574.47;5061628;28;19971;-71
2024/02/29 03:35:08;;;;;;;;;;;;;;;-144.99;nan;52635.63;5067783;22;20253;-68
2024/02/29 03:37:35;;;;;;;;;;;;;;;-144.99;nan;52568.34;5048863;28;19986;-68
2024/02/29 03:40:01;;;;;;;;;;;;;;;-144.99;nan;52588.75;5049674;28;20343;-68
2024/02/29 03:42:27;;;;;;;;;;;;;;;-144.99;nan;52562.25;5049088;28;20351;-68
2024/02/29 03:44:54;;;;;;;;;;;;;;;-144.99;nan;52588.75;5037946;28;20364;-68
2024/02/29 03:47:22;;;;;;;;;;;;;;;-144.99;nan;52641.72;5048343;28;19961;-68
2024/02/29 03:49:48;;;;;;;;;;;;;;;-144.99;nan;52578.53;5046179;28;20060;-68
2024/02/29 03:52:15;;;;;;;;;;;;;;;-144.99;nan;52631.53;5046456;28;19965;-65
2024/02/29 03:54:41;;;;;;;;;;;;;;;-144.99;nan;52598.94;5049694;28;20011;-65
2024/02/29 03:57:08;;;;;;;;;;;;;;;-144.99;nan;52574.47;5044639;28;19937;-65
2024/02/29 03:59:34;;;;;;;;;;;;;;;-144.99;nan;52623.38;5038352;28;19972;-65
2024/02/29 04:02:01;;;;;;;;;;;;;;;-144.99;nan;52574.47;5049111;28;19925;-64
2024/02/29 04:04:29;;;;;;;;;;;;;;;-144.99;nan;52631.53;5049663;28;19924;-65
2024/02/29 04:06:56;;;;;;;;;;;;;;;-144.99;nan;52594.84;5038918;28;19953;-66
2024/02/29 04:09:23;;;;;;;;;;;;;;;-144.99;nan;52619.31;5049207;28;19968;-66
2024/02/29 04:11:50;;;;;;;;;;;;;;;-144.99;nan;52613.19;5042635;28;20007;-66
2024/02/29 04:14:17;;;;;;;;;;;;;;;-144.99;nan;52594.84;5057141;28;19924;-66
2024/02/29 04:16:43;;;;;;;;;;;;;;;-144.99;nan;52603.00;5053271;28;19944;-67
2024/02/29 04:19:10;;;;;;;;;;;;;;;-144.99;nan;52668.22;5061332;28;19979;-67
2024/02/29 04:21:43;;;;;;;;;;;;;;;-144.99;nan;52627.47;5053076;28;19972;-68
2024/02/29 04:24:09;;;;;;;;;;;;;;;-144.99;nan;52635.63;5054060;28;19963;-64
2024/02/29 04:26:36;;;;;;;;;;;;;;;-144.99;nan;52594.84;5043487;28;20396;-64
2024/02/29 04:29:02;;;;;;;;;;;;;;;-144.99;nan;52586.69;5055101;28;20406;-64
2024/02/29 04:31:28;;;;;;;;;;;;;;;-144.99;nan;52623.38;5049246;28;20004;-64
2024/02/29 04:33:55;;;;;;;;;;;;;;;-144.99;nan;52607.09;5048314;28;20167;-65
2024/02/29 04:36:21;;;;;;;;;;;;;;;-144.99;nan;52611.16;5038247;28;19974;-66
2024/02/29 04:38:49;;;;;;;;;;;;;;;-144.99;nan;52603.00;5046691;28;19964;-63
2024/02/29 04:41:16;;;;;;;;;;;;;;;-144.99;nan;52625.44;5042431;28;19925;-63
2024/02/29 04:43:42;;;;;;;;;;;;;;;-144.99;nan;52613.19;5048308;28;19964;-63
2024/02/29 04:46:09;;;;;;;;;;;;;;;-144.99;nan;52603.00;5047479;28;20459;-69
2024/02/29 04:48:37;;;;;;;;;;;;;;;-144.99;nan;52603.00;5046729;28;20366;-69
2024/02/29 04:51:05;;;;;;;;;;;;;;;-144.99;nan;52623.38;5035223;28;20002;-68
2024/02/29 04:53:31;;;;;;;;;;;;;;;-144.99;nan;52627.47;5035191;28;20239;-68
2024/02/29 04:56:00;;;;;;;;;;;;;;;-144.99;nan;52607.09;5043577;28;19953;-69
2024/02/29 04:58:27;;;;;;;;;;;;;;;-144.99;nan;52627.47;5047475;28;20003;-68
2024/02/29 05:00:53;;;;;;;;;;;;;;;-144.99;nan;52609.13;5046324;28;20384;-67
2024/02/29 05:03:21;;;;;;;;;;;;;;;-144.99;nan;52605.03;5047700;28;19994;-69
2024/02/29 05:05:47;;;;;;;;;;;;;;;-144.99;nan;52623.38;5039855;28;19983;-70
2024/02/29 05:08:14;;;;;;;;;;;;;;;-144.99;nan;52619.31;5049445;28;19925;-70
2024/02/29 05:10:40;;;;;;;;;;;;;;;-144.99;nan;52623.38;5047534;28;19964;-70
2024/02/29 05:13:08;;;;;;;;;;;;;;;-144.99;nan;52627.47;5044661;28;19980;-70
2024/02/29 05:15:35;;;;;;;;;;;;;;;-144.99;nan;52619.31;5040886;28;20410;-73
2024/02/29 05:18:02;;;;;;;;;;;;;;;-144.99;nan;52594.84;5041600;28;19929;-75
2024/02/29 05:20:28;;;;;;;;;;;;;;;-144.99;nan;52598.94;5046639;28;19964;-75
2024/02/29 05:22:55;;;;;;;;;;;;;;;-144.99;nan;52615.25;5056552;28;19996;-77
2024/02/29 05:25:22;;;;;;;;;;;;;;;-144.99;nan;52631.53;5058394;28;19963;-77
2024/02/29 05:27:48;;;;;;;;;;;;;;;-144.99;nan;52660.09;5066009;28;19933;-73
2024/02/29 05:30:16;;;;;;;;;;;;;;;-144.99;nan;52598.94;5059470;28;19929;-72
2024/02/29 05:32:43;;;;;;;;;;;;;;;-144.99;nan;52639.69;5055399;28;20039;-64
2024/02/29 05:35:10;;;;;;;;;;;;;;;-144.99;nan;52611.16;5046844;28;19924;-67
2024/02/29 05:37:37;;;;;;;;;;;;;;;-144.99;nan;52641.72;5042961;28;20030;-67
2024/02/29 05:40:05;;;;;;;;;;;;;;;-144.99;nan;52582.63;5042921;28;20313;-67
2024/02/29 05:42:32;;;;;;;;;;;;;;;-144.99;nan;52594.84;5044659;28;20282;-73
2024/02/29 05:44:59;;;;;;;;;;;;;;;-144.99;nan;52598.94;5039636;28;20481;-72
2024/02/29 05:47:27;;;;;;;;;;;;;;;-144.99;nan;52627.47;5037627;28;19925;-71
2024/02/29 05:49:54;;;;;;;;;;;;;;;-144.99;nan;52578.53;5035604;28;20017;-71
2024/02/29 05:52:21;;;;;;;;;;;;;;;-144.99;nan;52574.47;5038447;28;20411;-71
2024/02/29 05:54:49;;;;;;;;;;;;;;;-144.99;nan;52619.31;5037197;28;20029;-62
2024/02/29 05:57:15;;;;;;;;;;;;;;;-144.99;nan;52627.47;5046193;28;19928;-73
2024/02/29 05:59:42;;;;;;;;;;;;;;;-144.99;nan;52623.38;5043839;28;19925;-74
2024/02/29 06:02:10;;;;;;;;;;;;;;;-144.99;nan;52629.50;5045110;28;19929;-74
2024/02/29 06:04:38;;;;;;;;;;;;;;;-144.99;nan;52631.53;5051626;28;19924;-75
2024/02/29 06:07:06;;;;;;;;;;;;;;;-144.99;nan;52615.25;5048477;28;20186;-70
2024/02/29 06:09:35;;;;;;;;;;;;;;;-144.99;nan;52660.09;5044141;28;19988;-71
2024/02/29 06:12:01;;;;;;;;;;;;;;;-144.99;nan;52647.84;5054923;28;20363;-70
2024/02/29 06:14:28;;;;;;;;;;;;;;;-144.99;nan;52627.47;5043500;28;19991;-73
2024/02/29 06:16:54;;;;;;;;;;;;;;;-144.99;nan;52615.25;5049132;28;19929;-70
2024/02/29 06:19:20;;;;;;;;;;;;;;;-144.99;nan;52627.47;5041208;28;19960;-69
2024/02/29 06:21:48;;;;;;;;;;;;;;;-144.99;nan;52594.84;5053625;28;20381;-70
2024/02/29 06:24:18;;;;;;;;;;;;;;;-144.99;nan;52635.63;5061622;28;19925;-70
2024/02/29 06:26:44;;;;;;;;;;;;;;;-144.99;nan;52611.16;5051422;28;19983;-69
2024/02/29 06:29:11;;;;;;;;;;;;;;;-144.99;nan;52627.47;5057189;28;19925;-70
2024/02/29 06:31:37;;;;;;;;;;;;;;;-144.99;nan;52588.75;5048154;28;19929;-71
2024/02/29 06:34:04;;;;;;;;;;;;;;;-144.99;nan;52639.69;5043644;28;19961;-71
2024/02/29 06:36:30;;;;;;;;;;;;;;;-144.99;nan;52562.25;5048582;28;20382;-71
2024/02/29 06:38:58;;;;;;;;;;;;;;;-144.99;nan;52582.63;5044694;28;19925;-71
2024/02/29 06:41:25;;;;;;;;;;;;;;;-144.99;nan;52564.28;5050176;28;19964;-71
2024/02/29 06:43:51;;;;;;;;;;;;;;;-144.99;nan;52607.09;5049038;28;20342;-70
2024/02/29 06:46:18;;;;;;;;;;;;;;;-144.99;nan;52592.81;5056722;28;20916;-70
2024/02/29 06:48:44;;;;;;;;;;;;;;;-144.99;nan;52562.25;5054206;28;19994;-72
2024/02/29 06:51:11;;;;;;;;;;;;;;;-144.99;nan;52598.94;5040557;28;19983;-70
2024/02/29 06:53:38;;;;;;;;;;;;;;;-144.99;nan;52607.09;5049620;28;19928;-71
2024/02/29 06:56:06;;;;;;;;;;;;;;;-144.99;nan;52588.75;5051034;28;20063;-60
2024/02/29 06:58:33;;;;;;;;;;;;;;;-144.99;nan;52570.38;5044216;28;20365;-68
2024/02/29 07:01:00;;;;;;;;;;;;;;;-144.99;nan;52586.69;5043213;28;19931;-70
2024/02/29 07:03:28;;;;;;;;;;;;;;;-144.99;nan;52619.31;5047102;28;19925;-71
2024/02/29 07:05:55;;;;;;;;;;;;;;;-144.99;nan;52623.38;5046030;28;19924;-70
2024/02/29 07:08:21;;;;;;;;;;;;;;;-144.99;nan;52570.38;5050037;28;20307;-71
2024/02/29 07:10:48;;;;;;;;;;;;;;;-144.99;nan;52570.38;5046939;28;20015;-70
2024/02/29 07:13:16;;;;;;;;;;;;;;;-144.99;nan;52594.84;5049617;28;19929;-70
2024/02/29 07:15:43;;;;;;;;;;;;;;;-144.99;nan;52578.53;5055498;28;19998;-70
2024/02/29 07:18:11;;;;;;;;;;;;;;;-144.99;nan;52566.31;5038477;28;19936;-70
2024/02/29 07:20:37;;;;;;;;;;;;;;;-144.99;nan;52615.25;5039856;28;20369;-70
2024/02/29 07:23:04;;;;;;;;;;;;;;;-144.99;nan;52584.66;5045045;28;19978;-68
2024/02/29 07:25:30;;;;;;;;;;;;;;;-144.99;nan;52611.16;5039413;28;19929;-69
2024/02/29 07:27:58;;;;;;;;;;;;;;;-144.99;nan;52603.00;5047894;28;19925;-69
2024/02/29 07:30:27;;;;;;;;;;;;;;;-144.99;nan;52607.09;5047702;28;20290;-68
2024/02/29 07:32:53;;;;;;;;;;;;;;;-144.99;nan;52615.25;5026850;28;19925;-68
2024/02/29 07:35:20;;;;;;;;;;;;;;;-144.99;nan;52592.81;5049823;28;19964;-69
2024/02/29 07:37:46;;;;;;;;;;;;;;;-144.99;nan;52562.25;5044967;28;19933;-68
2024/02/29 07:40:13;;;;;;;;;;;;;;;-144.99;nan;52582.63;5047255;28;19925;-68
2024/02/29 07:42:40;;;;;;;;;;;;;;;-144.99;nan;52590.78;5048862;28;19931;-69
2024/02/29 07:45:07;;;;;;;;;;;;;;;-144.99;nan;52566.31;5054850;28;19972;-69
2024/02/29 07:47:34;;;;;;;;;;;;;;;-144.99;nan;52603.00;5041424;28;19984;-69
2024/02/29 07:50:03;;;;;;;;;;;;;;;-144.99;nan;52558.16;5040991;28;20017;-68
2024/02/29 07:52:29;;;;;;;;;;;;;;;-144.99;nan;52554.09;5041967;28;20391;-68
2024/02/29 07:54:56;;;;;;;;;;;;;;;-144.99;nan;52570.38;5049739;28;20330;-68
2024/02/29 07:57:23;;;;;;;;;;;;;;;-144.99;nan;52598.94;5051958;28;19925;-68
2024/02/29 07:59:49;;;;;;;;;;;;;;;-144.99;nan;52584.66;5048754;28;20144;-68
2024/02/29 08:02:15;;;;;;;;;;;;;;;-144.99;nan;52607.09;5048990;28;20375;-68
2024/02/29 08:04:43;;;;;;;;;;;;;;;-144.99;nan;52621.34;5049252;28;19925;-68
2024/02/29 08:07:10;;;;;;;;;;;;;;;-144.99;nan;52558.16;5042747;28;19963;-68
2024/02/29 08:09:37;;;;;;;;;;;;;;;-144.99;nan;52611.16;5046347;28;19931;-67
2024/02/29 08:12:04;;;;;;;;;;;;;;;-144.99;nan;52582.63;5044056;28;19975;-68
2024/02/29 08:14:32;;;;;;;;;;;;;;;-144.99;nan;52590.78;5038821;28;19967;-68
2024/02/29 08:16:58;;;;;;;;;;;;;;;-144.99;nan;52607.09;5045911;28;19924;-68
2024/02/29 08:19:25;;;;;;;;;;;;;;;-144.99;nan;52607.09;5045143;28;19975;-68
2024/02/29 08:21:52;;;;;;;;;;;;;;;-144.99;nan;52570.38;5054520;28;20034;-68
2024/02/29 08:24:19;;;;;;;;;;;;;;;-144.99;nan;52594.84;5048685;28;20016;-68
2024/02/29 08:26:45;;;;;;;;;;;;;;;-144.99;nan;52541.84;5042505;28;20631;-68
2024/02/29 08:29:13;;;;;;;;;;;;;;;-144.99;nan;52603.00;5047101;28;20413;-68
2024/02/29 08:31:40;;;;;;;;;;;;;;;-144.99;nan;52605.03;5039800;28;19925;-68
2024/02/29 08:34:06;;;;;;;;;;;;;;;-144.99;nan;52570.38;5041456;28;19932;-68
2024/02/29 08:36:33;;;;;;;;;;;;;;;-144.99;nan;52615.25;5052649;28;19975;-68
2024/02/29 08:39:01;;;;;;;;;;;;;;;-144.99;nan;52578.53;5049664;28;20019;-68
2024/02/29 08:41:27;;;;;;;;;;;;;;;-144.99;nan;52554.09;5048399;28;20065;-68
2024/02/29 08:43:54;;;;;;;;;;;;;;;-144.99;nan;52586.69;5043363;28;19929;-68
2024/02/29 08:46:20;;;;;;;;;;;;;;;-144.99;nan;52590.78;5043230;28;19928;-67
2024/02/29 08:48:47;;;;;;;;;;;;;;;-144.99;nan;52611.16;5039623;28;20393;-68
2024/02/29 08:51:13;;;;;;;;;;;;;;;-144.99;nan;52566.31;5050119;28;19925;-69
2024/02/29 08:53:40;;;;;;;;;;;;;;;-144.99;nan;52562.25;5051398;28;20044;-68
2024/02/29 08:56:07;;;;;;;;;;;;;;;-144.99;nan;52537.78;5043112;28;19956;-68
2024/02/29 08:58:34;;;;;;;;;;;;;;;-144.99;nan;52586.69;5033891;28;19929;-68
2024/02/29 09:01:02;;;;;;;;;;;;;;;-144.99;nan;52590.78;5048060;28;19929;-68
2024/02/29 09:03:28;;;;;;;;;;;;;;;-144.99;nan;52550.00;5047172;28;19932;-68
2024/02/29 09:05:54;;;;;;;;;;;;;;;-144.99;nan;52541.84;5046165;28;20023;-68
2024/02/29 09:08:21;;;;;;;;;;;;;;;-144.99;nan;52537.78;5048230;28;20017;-68
2024/02/29 09:10:47;;;;;;;;;;;;;;;-144.99;nan;52541.84;5032173;28;20028;-68
2024/02/29 09:13:15;;;;;;;;;;;;;;;-144.99;nan;52580.59;5041155;28;20475;-68
2024/02/29 09:15:44;;;;;;;;;;;;;;;-144.99;nan;52572.44;5044943;28;19971;-68
2024/02/29 09:18:10;;;;;;;;;;;;;;;-144.99;nan;52562.25;5047486;28;20178;-68
2024/02/29 09:20:37;;;;;;;;;;;;;;;-144.99;nan;52570.38;5048979;28;20343;-67
2024/02/29 09:23:03;;;;;;;;;;;;;;;-144.99;nan;52568.34;5047088;28;19994;-67
2024/02/29 09:25:30;;;;;;;;;;;;;;;-144.99;nan;52594.84;5045606;28;19924;-68
2024/02/29 09:27:57;;;;;;;;;;;;;;;-144.99;nan;52554.09;5048622;28;19924;-67
2024/02/29 09:30:25;;;;;;;;;;;;;;;-144.99;nan;52562.25;5042395;28;19929;-67
2024/02/29 09:32:52;;;;;;;;;;;;;;;-144.99;nan;52545.94;5047725;28;19993;-68
2024/02/29 09:35:18;;;;;;;;;;;;;;;-144.99;nan;52529.63;5035851;28;19932;-67
2024/02/29 09:37:45;;;;;;;;;;;;;;;-144.99;nan;52513.31;5034290;28;19951;-68
2024/02/29 09:40:11;;;;;;;;;;;;;;;-144.99;nan;52521.47;5037789;28;19955;-68
2024/02/29 09:42:38;;;;;;;;;;;;;;;-144.99;nan;52525.56;5047708;28;20016;-67
2024/02/29 09:45:05;;;;;;;;;;;;;;;-144.99;nan;52541.84;5042518;28;19976;-67
2024/02/29 09:47:34;;;;;;;;;;;;;;;-144.99;nan;52562.25;5040125;28;20020;-67
2024/02/29 09:50:01;;;;;;;;;;;;;;;-144.99;nan;52497.00;5046523;28;20345;-69
2024/02/29 09:52:28;;;;;;;;;;;;;;;-144.99;nan;52513.31;5050325;28;19980;-69
2024/02/29 09:54:56;;;;;;;;;;;;;;;-144.99;nan;52523.50;5045130;28;19975;-69
2024/02/29 09:57:22;;;;;;;;;;;;;;;-144.99;nan;52501.09;5048019;28;19929;-69
2024/02/29 09:59:49;;;;;;;;;;;;;;;-144.99;nan;52507.19;5042384;28;19979;-69
2024/02/29 10:02:16;;;;;;;;;;;;;;;-144.99;nan;52505.16;5044161;28;19925;-69
2024/02/29 10:04:45;;;;;;;;;;;;;;;-144.99;nan;52505.16;5048878;28;20375;-69
2024/02/29 10:07:12;;;;;;;;;;;;;;;-144.99;nan;52523.50;5035299;28;19982;-68
2024/02/29 10:09:38;;;;;;;;;;;;;;;-144.99;nan;52509.25;5042601;28;19931;-69
2024/02/29 10:12:07;;;;;;;;;;;;;;;-144.99;nan;52558.16;5040726;28;20430;-69
2024/02/29 10:14:34;;;;;;;;;;;;;;;-144.99;nan;52517.41;5041526;28;19929;-69
2024/02/29 10:17:01;;;;;;;;;;;;;;;-144.99;nan;52490.91;5047565;28;20070;-69
2024/02/29 10:19:28;;;;;;;;;;;;;;;-144.99;nan;52497.00;5045732;28;19925;-69
2024/02/29 10:21:56;;;;;;;;;;;;;;;-144.99;nan;52501.09;5037056;28;19925;-69
2024/02/29 10:24:23;;;;;;;;;;;;;;;-144.99;nan;52541.84;5047506;28;19966;-69
2024/02/29 10:26:50;;;;;;;;;;;;;;;-144.99;nan;52509.25;5046563;28;19925;-69
2024/02/29 10:29:17;;;;;;;;;;;;;;;-144.99;nan;52505.16;5057341;28;20029;-69
2024/02/29 10:31:43;;;;;;;;;;;;;;;-144.99;nan;52472.56;5035961;28;19933;-68
2024/02/29 10:34:10;;;;;;;;;;;;;;;-144.99;nan;52497.00;5035390;28;19936;-68
2024/02/29 10:36:36;;;;;;;;;;;;;;;-144.99;nan;52480.72;5042616;28;19925;-68
2024/02/29 10:39:04;;;;;;;;;;;;;;;-144.99;nan;52480.72;5047430;28;20287;-69
2024/02/29 10:41:31;;;;;;;;;;;;;;;-144.99;nan;52492.94;5037037;28;19928;-69
2024/02/29 10:44:01;;;;;;;;;;;;;;;-144.99;nan;52501.09;5043411;28;20004;-69
2024/02/29 10:46:28;;;;;;;;;;;;;;;-144.99;nan;52484.78;5047898;28;19928;-69
2024/02/29 10:49:03;;;;;;;;;;;;;;;-144.99;nan;52492.94;5056379;28;20298;-68
2024/02/29 10:51:39;;;;;;;;;;;;;;;-144.99;nan;52505.16;5042455;28;19960;-69
2024/02/29 10:54:10;;;;;;;;;;;;;;;-144.99;nan;52492.94;5053823;28;19968;-69
2024/02/29 10:56:37;;;;;;;;;;;;;;;-144.99;nan;52513.31;5038444;28;19968;-69
2024/02/29 10:59:04;;;;;;;;;;;;;;;-144.99;nan;52501.09;5039244;28;20287;-68
2024/02/29 11:01:31;;;;;;;;;;;;;;;-144.99;nan;52462.34;5039997;28;20095;-68
2024/02/29 11:03:58;;;;;;;;;;;;;;;-144.99;nan;52476.63;5044823;28;20334;-68
2024/02/29 11:06:26;;;;;;;;;;;;;;;-144.99;nan;52484.78;5040391;28;19937;-69
2024/02/29 11:08:52;;;;;;;;;;;;;;;-144.99;nan;52460.31;5045300;28;20252;-69
2024/02/29 11:11:22;;;;;;;;;;;;;;;-144.99;nan;52478.66;5054898;28;19947;-69
2024/02/29 11:13:48;;;;;;;;;;;;;;;-144.99;nan;52501.09;5050207;28;19932;-69
2024/02/29 11:16:16;;;;;;;;;;;;;;;-144.99;nan;52505.16;5046119;28;19954;-69
2024/02/29 11:18:43;;;;;;;;;;;;;;;-144.99;nan;52541.84;5045657;28;19929;-69
2024/02/29 11:21:09;;;;;;;;;;;;;;;-144.99;nan;52497.00;5044847;28;20237;-69
2024/02/29 11:23:36;;;;;;;;;;;;;;;-144.99;nan;52476.63;5046214;28;20028;-69
2024/02/29 11:26:02;;;;;;;;;;;;;;;-144.99;nan;52533.69;5044175;28;19925;-69
2024/02/29 11:28:38;;;;;;;;;;;;;;;-144.99;nan;52523.50;5043945;28;19925;-68
2024/02/29 11:31:08;;;;;;;;;;;;;;;-144.99;nan;52533.69;5032992;28;19936;-68
2024/02/29 11:33:36;;;;;;;;;;;;;;;-144.99;nan;52494.97;5046361;28;19928;-69
2024/02/29 11:36:03;;;;;;;;;;;;;;;-144.99;nan;52484.78;5045590;28;19978;-70
2024/02/29 11:38:31;;;;;;;;;;;;;;;-144.99;nan;52486.81;5046399;28;20009;-69
2024/02/29 11:40:57;;;;;;;;;;;;;;;-144.99;nan;52464.41;5048890;28;19924;-69
2024/02/29 11:43:24;;;;;;;;;;;;;;;-144.99;nan;52472.56;5045532;28;20414;-69
2024/02/29 11:45:51;;;;;;;;;;;;;;;-144.99;nan;52460.31;5054403;28;20355;-69
2024/02/29 11:48:18;;;;;;;;;;;;;;;-144.99;nan;52476.63;5049792;28;20469;-69
2024/02/29 11:50:44;;;;;;;;;;;;;;;-144.99;nan;52435.88;5047856;28;20367;-69
2024/02/29 11:53:12;;;;;;;;;;;;;;;-144.99;nan;52407.31;5053741;28;20003;-68
2024/02/29 11:55:38;;;;;;;;;;;;;;;-144.99;nan;52425.66;5048812;28;19928;-69
2024/02/29 11:58:05;;;;;;;;;;;;;;;-144.99;nan;52452.16;5054182;28;19990;-69
2024/02/29 12:00:31;;;;;;;;;;;;;;;-144.99;nan;52399.19;5042095;28;20476;-69
2024/02/29 12:02:59;;;;;;;;;;;;;;;-144.99;nan;52399.19;5051293;28;19928;-69
2024/02/29 12:05:26;;;;;;;;;;;;;;;-144.99;nan;52395.09;5049598;28;20031;-69
2024/02/29 12:07:52;;;;;;;;;;;;;;;-144.99;nan;52393.06;5048056;28;19925;-69
2024/02/29 12:10:19;;;;;;;;;;;;;;;-144.99;nan;52421.59;5049489;28;20302;-69
2024/02/29 12:12:45;;;;;;;;;;;;;;;-144.99;nan;52403.25;5047305;28;19936;-69
2024/02/29 12:15:12;;;;;;;;;;;;;;;-144.99;nan;52358.41;5042848;28;19971;-68
2024/02/29 12:17:39;;;;;;;;;;;;;;;-144.99;nan;52358.41;5040949;28;19968;-68
2024/02/29 12:20:09;;;;;;;;;;;;;;;-144.99;nan;52325.81;5041683;28;19929;-68
2024/02/29 12:22:36;;;;;;;;;;;;;;;-144.99;nan;52356.38;5055162;28;19947;-68
2024/02/29 12:25:11;;;;;;;;;;;;;;;-144.99;nan;52317.66;5046677;28;19972;-69
2024/02/29 12:27:38;;;;;;;;;;;;;;;-144.99;nan;52260.56;5055127;28;20018;-69
2024/02/29 12:30:05;;;;;;;;;;;;;;;-144.99;nan;52329.88;5031764;28;19925;-69
2024/02/29 12:32:33;;;;;;;;;;;;;;;-144.99;nan;52266.69;5039696;28;19957;-68
2024/02/29 12:34:59;;;;;;;;;;;;;;;-144.99;nan;52305.41;5049665;28;19928;-69
2024/02/29 12:37:29;;;;;;;;;;;;;;;-144.99;nan;52329.88;5035818;28;20003;-69
2024/02/29 12:39:56;;;;;;;;;;;;;;;-144.99;nan;52301.34;5044339;28;20011;-69
2024/02/29 12:42:23;;;;;;;;;;;;;;;-144.99;nan;52276.88;5037630;28;19972;-69
2024/02/29 12:44:50;;;;;;;;;;;;;;;-144.99;nan;52313.56;5036653;28;19941;-69
2024/02/29 12:47:16;;;;;;;;;;;;;;;-144.99;nan;52293.19;5042586;28;19976;-69